createdAt,value
2023-05-23T05:14:58.957Z,2.20
2023-05-23T05:18:04.856Z,2.00
2023-05-23T05:21:09.781Z,1.95
2023-05-23T05:24:15.983Z,1.73
2023-05-23T05:27:20.225Z,1.90
2023-05-23T05:30:27.312Z,1.85
2023-05-23T05:33:36.518Z,1.85
2023-05-23T05:36:50.350Z,1.67
2023-05-23T05:39:56.654Z,1.40
2023-05-23T05:43:01.944Z,1.70
2023-05-23T05:46:07.843Z,1.95
2023-05-23T05:49:13.112Z,1.55
2023-05-23T05:52:18.870Z,1.42
2023-05-23T05:55:23.882Z,1.77
2023-05-23T05:58:31.241Z,1.90
2023-05-23T06:01:41.160Z,1.80
2023-05-23T06:04:46.152Z,1.70
2023-05-23T06:07:52.015Z,2.00
2023-05-23T06:10:57.050Z,2.00
2023-05-23T06:14:04.259Z,1.75
2023-05-23T06:17:11.258Z,1.52
2023-05-23T06:20:16.960Z,1.60
2023-05-23T08:30:38.167Z,1.30
2023-05-23T08:33:44.919Z,1.40
2023-05-23T08:36:50.532Z,1.48
2023-05-23T08:39:58.740Z,1.10
2023-05-23T08:43:16.332Z,1.40
2023-05-23T08:46:24.537Z,1.40
2023-05-23T08:49:29.354Z,1.63
2023-05-23T08:52:37.195Z,1.13
2023-05-23T08:55:42.931Z,1.70
2023-05-23T08:58:49.155Z,1.10
2023-05-23T09:01:59.878Z,1.42
2023-05-23T09:05:05.419Z,1.33
2023-05-23T09:08:10.240Z,1.80
2023-05-23T09:11:16.256Z,1.48
2023-05-23T09:14:22.865Z,1.25
2023-05-23T09:17:35.464Z,1.10
2023-05-23T09:20:42.656Z,1.10
2023-05-23T09:23:50.121Z,1.23
2023-05-23T09:26:54.832Z,1.40
2023-05-23T09:29:59.963Z,1.70
2023-05-23T09:33:06.943Z,1.40
2023-05-23T09:36:17.124Z,1.50
2023-05-23T09:39:21.647Z,1.27
2023-05-23T09:42:36.788Z,1.77
2023-05-23T09:45:41.641Z,1.40
2023-05-23T09:48:51.886Z,1.40
2023-05-23T09:52:02.869Z,1.52
2023-05-23T09:55:09.549Z,1.52
2023-05-23T09:58:15.868Z,1.42
2023-05-23T10:01:29.125Z,1.65
2023-05-23T10:04:39.112Z,1.23
2023-05-23T10:07:45.500Z,1.27
2023-05-23T10:11:38.302Z,1.48
2023-05-23T10:14:57.021Z,1.65
2023-05-23T10:18:11.087Z,3.20
2023-05-23T10:21:25.832Z,8.85
2023-05-23T10:24:31.372Z,1.60
2023-05-23T10:27:42.083Z,1.23
2023-05-23T10:30:48.204Z,1.50
2023-05-23T10:34:08.824Z,1.38
2023-05-23T10:37:31.241Z,1.10
2023-05-23T10:40:52.637Z,1.30
2023-05-23T10:47:13.307Z,0.90
2023-05-23T10:50:35.656Z,1.38
2023-05-23T10:53:49.674Z,1.20
2023-05-23T10:57:06.141Z,1.25
2023-05-23T11:00:21.043Z,1.27
2023-05-23T11:04:00.982Z,1.15
2023-05-23T11:07:06.471Z,1.20
2023-05-23T11:10:15.795Z,1.20
2023-05-23T11:13:26.685Z,1.40
2023-05-23T11:16:34.570Z,1.30
2023-05-23T11:19:44.136Z,1.50
2023-05-23T11:23:12.655Z,1.50
2023-05-23T11:26:34.785Z,1.50
2023-05-23T11:29:39.045Z,2.00
2023-05-23T11:32:44.702Z,1.40
2023-05-23T11:35:52.031Z,1.20
2023-05-23T11:38:57.550Z,1.02
2023-05-23T11:42:07.707Z,1.48
2023-05-23T11:45:12.821Z,1.25
2023-05-23T11:48:23.692Z,1.73
2023-05-23T11:51:28.367Z,1.50
2023-05-23T11:54:32.981Z,1.50
2023-05-23T11:57:41.673Z,1.35
2023-05-23T12:00:51.391Z,1.40
2023-05-23T12:03:58.011Z,1.48
2023-05-23T12:07:08.426Z,1.55
2023-05-23T12:10:13.583Z,1.27
2023-05-23T12:13:19.446Z,1.42
2023-05-23T12:16:24.119Z,1.23
2023-05-23T12:19:28.496Z,1.88
2023-05-23T12:22:33.066Z,1.20
2023-05-23T12:25:47.637Z,1.23
2023-05-23T12:28:53.605Z,1.55
2023-05-23T12:32:00.881Z,1.30
2023-05-23T12:35:07.056Z,1.50
2023-05-23T12:38:11.256Z,1.15
2023-05-23T12:41:20.145Z,1.52
2023-05-23T12:44:35.711Z,1.40
2023-05-23T12:47:40.383Z,1.30
2023-05-23T12:50:45.317Z,1.52
2023-05-23T12:53:50.697Z,1.70
2023-05-23T12:56:55.191Z,1.52
2023-05-23T13:00:01.842Z,1.35
2023-05-23T13:03:07.550Z,1.92
2023-05-23T13:06:18.298Z,1.75
2023-05-23T13:09:27.696Z,1.90
2023-05-23T13:12:33.201Z,2.22
2023-05-23T13:15:43.601Z,2.17
2023-05-23T13:21:53.915Z,1.95
2023-05-23T13:25:04.306Z,2.13
2023-05-23T13:28:08.727Z,1.77
2023-05-23T13:31:15.216Z,1.60
2023-05-23T13:34:19.433Z,1.80
2023-05-23T13:37:24.169Z,2.17
2023-05-23T13:40:29.196Z,1.88
2023-05-23T13:43:39.055Z,1.92
2023-05-23T13:46:49.841Z,1.98
2023-05-23T13:49:54.812Z,1.67
2023-05-23T13:52:59.719Z,1.67
2023-05-23T13:56:08.670Z,2.05
2023-05-23T13:59:13.195Z,1.95
2023-05-23T14:02:19.775Z,1.60
2023-05-23T14:05:24.181Z,1.90
2023-05-23T14:08:28.779Z,1.90
2023-05-23T14:11:33.694Z,1.70
2023-05-23T14:14:39.508Z,1.80
2023-05-23T14:17:45.311Z,1.75
2023-05-23T14:20:49.774Z,2.13
2023-05-23T14:23:54.294Z,1.60
2023-05-23T14:26:59.129Z,1.70
2023-05-23T14:30:03.552Z,1.75
2023-05-23T14:33:14.297Z,1.90
2023-05-23T14:36:18.696Z,1.70
2023-05-23T14:39:23.590Z,1.77
2023-05-23T14:42:28.270Z,2.10
2023-05-23T14:45:37.319Z,1.85
2023-05-23T14:48:46.710Z,2.10
2023-05-23T14:51:51.980Z,2.03
2023-05-23T14:54:57.000Z,2.13
2023-05-23T14:58:03.787Z,2.33
2023-05-23T15:01:08.210Z,2.05
2023-05-23T15:04:14.955Z,1.77
2023-05-23T15:07:19.219Z,1.98
2023-05-23T15:10:24.268Z,1.90
2023-05-23T15:13:28.793Z,2.80
2023-05-23T15:16:33.789Z,3.67
2023-05-23T15:19:43.328Z,3.00
2023-05-23T15:22:48.386Z,5.80
2023-05-23T15:25:53.260Z,9.23
2023-05-23T15:28:58.114Z,5.32
2023-05-23T15:32:02.417Z,6.75
2023-05-23T15:35:13.055Z,11.15
2023-05-23T15:38:19.248Z,1.97
2023-05-23T15:41:25.248Z,1.90
2023-05-23T15:44:29.562Z,2.15
2023-05-23T15:47:34.602Z,2.03
2023-05-23T15:50:40.833Z,2.20
2023-05-23T15:53:59.864Z,2.03
2023-05-23T15:57:06.009Z,2.25
2023-05-23T16:00:12.990Z,1.98
2023-05-23T16:03:17.420Z,2.38
2023-05-23T16:06:25.607Z,2.50
2023-05-23T16:09:29.918Z,2.65
2023-05-23T16:12:34.593Z,2.17
2023-05-23T16:15:38.713Z,3.40
2023-05-23T16:18:43.502Z,3.95
2023-05-23T16:21:50.777Z,3.47
2023-05-23T16:24:55.935Z,3.20
2023-05-23T16:28:04.645Z,5.82
2023-05-23T16:31:09.326Z,3.05
2023-05-23T16:34:13.705Z,3.92
2023-05-23T16:37:19.915Z,3.38
2023-05-23T16:40:24.297Z,2.60
2023-05-23T16:43:29.255Z,3.03
2023-05-23T16:46:33.442Z,3.88
2023-05-23T16:49:37.921Z,3.42
2023-05-23T16:52:44.998Z,3.60
2023-05-23T16:55:53.652Z,3.30
2023-05-23T16:58:57.892Z,3.40
2023-05-23T17:02:02.511Z,2.88
2023-05-23T17:05:07.991Z,3.60
2023-05-23T17:08:14.010Z,3.08
2023-05-23T17:11:18.368Z,2.95
2023-05-23T17:14:23.382Z,2.97
2023-05-23T17:17:27.802Z,3.10
2023-05-23T17:20:32.944Z,3.13
2023-05-23T17:23:38.769Z,2.75
2023-05-23T17:26:43.934Z,2.78
2023-05-23T17:29:48.889Z,2.70
2023-05-23T17:33:02.156Z,2.80
2023-05-23T17:36:07.662Z,3.08
2023-05-23T17:39:21.135Z,3.30
2023-05-23T17:42:26.362Z,3.13
2023-05-23T17:45:31.684Z,3.47
2023-05-23T17:48:47.221Z,3.92
2023-05-23T17:51:56.782Z,3.10
2023-05-23T17:55:02.863Z,3.47
2023-05-23T17:58:16.669Z,3.33
2023-05-23T18:01:25.010Z,3.47
2023-05-23T18:04:30.970Z,3.58
2023-05-23T18:07:35.801Z,2.83
2023-05-23T18:10:47.548Z,2.70
2023-05-23T18:16:57.379Z,3.03
2023-05-23T18:20:02.324Z,2.97
2023-05-23T18:23:06.901Z,3.25
2023-05-23T18:26:13.363Z,3.58
2023-05-23T18:29:20.383Z,4.07
2023-05-23T18:32:24.881Z,4.13
2023-05-23T18:35:29.573Z,3.83
2023-05-23T18:38:34.417Z,3.97
2023-05-23T18:41:46.562Z,4.50
2023-05-23T18:44:51.041Z,5.13
2023-05-23T18:48:01.590Z,6.40
2023-05-23T18:51:07.188Z,4.40
2023-05-23T18:54:12.848Z,6.93
2023-05-23T18:57:23.045Z,4.47
2023-05-23T19:00:28.084Z,3.35
2023-05-23T19:03:33.732Z,2.95
2023-05-23T19:06:38.336Z,2.65
2023-05-23T19:09:42.718Z,2.53
2023-05-23T19:12:52.818Z,4.05
2023-05-23T19:15:57.681Z,3.53
2023-05-23T19:19:02.410Z,2.75
2023-05-23T19:22:07.253Z,3.60
2023-05-23T19:25:17.326Z,3.50
2023-05-23T19:28:23.003Z,3.75
2023-05-23T19:31:32.234Z,3.80
2023-05-23T19:34:36.705Z,3.00
2023-05-23T19:37:49.406Z,3.20
2023-05-23T19:40:54.269Z,3.90
2023-05-23T19:44:00.817Z,3.33
2023-05-23T19:47:09.814Z,2.75
2023-05-23T19:50:18.715Z,3.10
2023-05-23T19:53:27.752Z,2.95
2023-05-23T19:56:32.708Z,2.80
2023-05-23T19:59:38.641Z,3.10
2023-05-23T20:02:47.785Z,3.70
2023-05-23T20:05:52.437Z,3.17
2023-05-23T20:08:57.745Z,3.40
2023-05-23T20:12:01.909Z,2.83
2023-05-23T20:15:10.072Z,3.30
2023-05-23T20:18:14.464Z,3.25
2023-05-23T20:21:23.994Z,3.03
2023-05-23T20:24:32.707Z,3.10
2023-05-23T20:27:37.805Z,3.25
2023-05-23T20:30:43.533Z,2.95
2023-05-23T20:33:48.696Z,2.83
2023-05-23T20:36:53.519Z,3.53
2023-05-23T20:39:58.443Z,3.33
2023-05-23T20:43:04.928Z,3.10
2023-05-23T20:46:13.891Z,2.95
2023-05-23T20:49:19.001Z,2.85
2023-05-23T20:52:24.692Z,3.00
2023-05-23T20:55:29.273Z,2.97
2023-05-23T20:58:34.352Z,2.60
2023-05-23T21:01:40.410Z,2.95
2023-05-23T21:04:45.810Z,2.83
2023-05-23T21:07:49.952Z,3.05
2023-05-23T21:10:54.916Z,2.55
2023-05-23T21:13:59.165Z,2.95
2023-05-23T21:17:05.722Z,2.92
2023-05-23T21:20:11.503Z,2.75
2023-05-23T21:23:16.268Z,2.85
2023-05-23T21:26:20.449Z,2.45
2023-05-23T21:29:25.066Z,2.72
2023-05-23T21:32:30.967Z,2.67
2023-05-23T21:35:40.950Z,2.90
2023-05-23T21:38:45.308Z,3.00
2023-05-23T21:41:53.651Z,2.95
2023-05-23T21:44:57.677Z,3.10
2023-05-23T21:48:03.790Z,3.13
2023-05-23T21:51:08.002Z,2.97
2023-05-23T21:54:12.783Z,2.90
2023-05-23T21:57:20.626Z,3.40
2023-05-23T22:00:29.805Z,3.13
2023-05-23T22:03:35.549Z,3.30
2023-05-23T22:06:40.065Z,3.33
2023-05-23T22:09:44.098Z,3.30
2023-05-23T22:12:48.689Z,3.03
2023-05-23T22:15:52.769Z,3.20
2023-05-23T22:18:59.328Z,3.60
2023-05-23T22:22:03.435Z,3.95
2023-05-23T22:25:09.643Z,3.35
2023-05-23T22:28:13.795Z,3.50
2023-05-23T22:31:18.187Z,3.20
2023-05-23T22:34:23.976Z,3.20
2023-05-23T22:37:28.374Z,3.30
2023-05-23T22:40:32.481Z,3.80
2023-05-23T22:43:37.466Z,3.20
2023-05-23T22:46:43.708Z,3.92
2023-05-23T22:49:59.934Z,3.80
2023-05-23T22:53:04.933Z,3.97
2023-05-23T22:56:13.788Z,3.85
2023-05-23T22:59:18.210Z,3.35
2023-05-23T23:02:22.818Z,3.45
2023-05-23T23:05:28.489Z,3.35
2023-05-23T23:08:33.078Z,3.38
2023-05-23T23:11:37.145Z,3.50
2023-05-23T23:14:41.633Z,3.30
2023-05-23T23:17:46.073Z,3.72
2023-05-23T23:20:52.355Z,3.88
2023-05-23T23:23:56.870Z,3.92
2023-05-23T23:27:01.384Z,3.70
2023-05-23T23:30:06.748Z,3.85
2023-05-23T23:33:11.925Z,4.22
2023-05-23T23:36:17.499Z,3.83
2023-05-23T23:39:22.200Z,4.20
2023-05-23T23:42:26.327Z,3.83
2023-05-23T23:45:30.810Z,3.95
2023-05-23T23:48:38.562Z,3.65
2023-05-23T23:51:44.482Z,3.38
2023-05-23T23:54:48.485Z,3.58
2023-05-23T23:57:53.242Z,3.85
